BAW9226 LFPO-EGLL
Flight info
| Callsign | BAW9226 |
|---|---|
| Flight time | 0h 46m |
| Altitude | 24000 |
| Route | OPALE2F OPALE DCT KESAX DCT DIMAL DCT ALESO ALESO1H |
| Aircraft | A321/M-SDE3FGIJ1KRWXY/SB1 |
Departure
| Time | 2026-05-05 14:59 |
|---|---|
| Airport | Paris-Orly Airport (LFPO) |
Arrival
| Time | 2026-05-05 15:45 |
|---|---|
| Airport | London Heathrow Airport (EGLL) |
| Time | Latitude | Longitude | Altitude | Speed | Heading |
|---|---|---|---|---|---|
| 2026-05-05 14:41 | 48.72766 | 2.35789 | 298 ft | 0 kts | 127° |
| 2026-05-05 14:52 | 48.72776 | 2.35772 | 298 ft | 4 kts | 160° |
| 2026-05-05 14:52 | 48.72793 | 2.35777 | 299 ft | 4 kts | 235° |
| 2026-05-05 14:52 | 48.72801 | 2.35802 | 298 ft | 0 kts | 257° |
| 2026-05-05 14:54 | 48.72800 | 2.35790 | 299 ft | 5 kts | 257° |
| 2026-05-05 14:54 | 48.72787 | 2.35716 | 294 ft | 9 kts | 254° |
| 2026-05-05 14:55 | 48.72767 | 2.35612 | 295 ft | 11 kts | 254° |
| 2026-05-05 14:55 | 48.72734 | 2.35513 | 296 ft | 11 kts | 218° |
| 2026-05-05 14:55 | 48.72654 | 2.35515 | 295 ft | 13 kts | 166° |
| 2026-05-05 14:55 | 48.72554 | 2.35553 | 295 ft | 17 kts | 166° |
| 2026-05-05 14:56 | 48.72436 | 2.35602 | 293 ft | 18 kts | 162° |
| 2026-05-05 14:56 | 48.72310 | 2.35622 | 293 ft | 19 kts | 194° |
| 2026-05-05 14:56 | 48.72188 | 2.35615 | 294 ft | 14 kts | 172° |
| 2026-05-05 14:56 | 48.72089 | 2.35663 | 295 ft | 15 kts | 159° |
| 2026-05-05 14:57 | 48.72022 | 2.35771 | 294 ft | 15 kts | 123° |
| 2026-05-05 14:57 | 48.71967 | 2.35909 | 296 ft | 16 kts | 109° |
| 2026-05-05 14:57 | 48.71967 | 2.35990 | 293 ft | 0 kts | 75° |
| 2026-05-05 14:58 | 48.71969 | 2.36007 | 293 ft | 6 kts | 75° |
| 2026-05-05 14:58 | 48.72040 | 2.36387 | 295 ft | 75 kts | 73° |
| 2026-05-05 14:58 | 48.72254 | 2.37490 | 294 ft | 140 kts | 73° |
| 2026-05-05 14:58 | 48.72547 | 2.39051 | 695 ft | 158 kts | 71° |
| 2026-05-05 14:59 | 48.72881 | 2.40637 | 1523 ft | 159 kts | 68° |
| 2026-05-05 14:59 | 48.73146 | 2.42348 | 1982 ft | 182 kts | 83° |
| 2026-05-05 14:59 | 48.72729 | 2.44339 | 2190 ft | 217 kts | 121° |
| 2026-05-05 14:59 | 48.71482 | 2.45821 | 2441 ft | 250 kts | 155° |
| 2026-05-05 15:00 | 48.69680 | 2.46198 | 2896 ft | 273 kts | 186° |
| 2026-05-05 15:00 | 48.68440 | 2.45659 | 3355 ft | 278 kts | 206° |
| 2026-05-05 15:00 | 48.66566 | 2.43052 | 4405 ft | 280 kts | 239° |
| 2026-05-05 15:00 | 48.65680 | 2.40418 | 5118 ft | 282 kts | 250° |
| 2026-05-05 15:01 | 48.65052 | 2.37620 | 5865 ft | 283 kts | 257° |
| 2026-05-05 15:01 | 48.64582 | 2.34711 | 6571 ft | 286 kts | 261° |
| 2026-05-05 15:01 | 48.64477 | 2.31719 | 7276 ft | 286 kts | 278° |
| 2026-05-05 15:01 | 48.65022 | 2.28855 | 7987 ft | 284 kts | 300° |
| 2026-05-05 15:02 | 48.66234 | 2.26548 | 8687 ft | 283 kts | 323° |
| 2026-05-05 15:02 | 48.67951 | 2.25160 | 9374 ft | 282 kts | 347° |
| 2026-05-05 15:02 | 48.69886 | 2.24765 | 10028 ft | 285 kts | 358° |
| 2026-05-05 15:02 | 48.71934 | 2.24533 | 10188 ft | 307 kts | 358° |
| 2026-05-05 15:03 | 48.74107 | 2.24282 | 10373 ft | 325 kts | 357° |
| 2026-05-05 15:03 | 48.76341 | 2.24008 | 10813 ft | 332 kts | 357° |
| 2026-05-05 15:03 | 48.78660 | 2.23712 | 11397 ft | 336 kts | 357° |
| 2026-05-05 15:03 | 48.81001 | 2.23410 | 11983 ft | 340 kts | 357° |
| 2026-05-05 15:04 | 48.83361 | 2.23105 | 12560 ft | 344 kts | 357° |
| 2026-05-05 15:04 | 48.85766 | 2.22797 | 13134 ft | 348 kts | 357° |
| 2026-05-05 15:04 | 48.88205 | 2.22484 | 13708 ft | 353 kts | 357° |
| 2026-05-05 15:04 | 48.90659 | 2.22168 | 14231 ft | 356 kts | 357° |
| 2026-05-05 15:05 | 48.95664 | 2.21526 | 15255 ft | 365 kts | 357° |
| 2026-05-05 15:05 | 48.98206 | 2.21202 | 15766 ft | 369 kts | 357° |
| 2026-05-05 15:05 | 49.00776 | 2.20873 | 16289 ft | 373 kts | 357° |
| 2026-05-05 15:06 | 49.03324 | 2.20548 | 16770 ft | 377 kts | 357° |
| 2026-05-05 15:06 | 49.05909 | 2.20217 | 17222 ft | 381 kts | 356° |
| 2026-05-05 15:06 | 49.08584 | 2.19875 | 17735 ft | 384 kts | 357° |
| 2026-05-05 15:06 | 49.11223 | 2.19532 | 18198 ft | 388 kts | 357° |
| 2026-05-05 15:07 | 49.13933 | 2.19179 | 18619 ft | 391 kts | 357° |
| 2026-05-05 15:07 | 49.16643 | 2.18828 | 19069 ft | 393 kts | 357° |
| 2026-05-05 15:07 | 49.19388 | 2.18477 | 19504 ft | 396 kts | 357° |
| 2026-05-05 15:07 | 49.22129 | 2.18124 | 19944 ft | 399 kts | 357° |
| 2026-05-05 15:08 | 49.24901 | 2.17763 | 20405 ft | 401 kts | 356° |
| 2026-05-05 15:08 | 49.27697 | 2.17401 | 20840 ft | 404 kts | 357° |
| 2026-05-05 15:08 | 49.30511 | 2.17033 | 21260 ft | 407 kts | 356° |
| 2026-05-05 15:08 | 49.33331 | 2.16662 | 21666 ft | 410 kts | 356° |
| 2026-05-05 15:09 | 49.36173 | 2.16289 | 22072 ft | 412 kts | 356° |
| 2026-05-05 15:09 | 49.39053 | 2.15914 | 22465 ft | 415 kts | 356° |
| 2026-05-05 15:09 | 49.41939 | 2.15529 | 22896 ft | 417 kts | 354° |
| 2026-05-05 15:09 | 49.44797 | 2.14635 | 23272 ft | 421 kts | 343° |
| 2026-05-05 15:10 | 49.47571 | 2.13089 | 23610 ft | 425 kts | 340° |
| 2026-05-05 15:10 | 49.50312 | 2.11498 | 23820 ft | 425 kts | 340° |
| 2026-05-05 15:10 | 49.53062 | 2.09905 | 23859 ft | 420 kts | 339° |
| 2026-05-05 15:10 | 49.55803 | 2.08325 | 23861 ft | 420 kts | 340° |
| 2026-05-05 15:11 | 49.58540 | 2.06753 | 23862 ft | 420 kts | 340° |
| 2026-05-05 15:11 | 49.61272 | 2.05181 | 23863 ft | 419 kts | 340° |
| 2026-05-05 15:11 | 49.63996 | 2.03612 | 23860 ft | 418 kts | 340° |
| 2026-05-05 15:11 | 49.66725 | 2.02034 | 23857 ft | 419 kts | 339° |
| 2026-05-05 15:12 | 49.69479 | 2.00442 | 23859 ft | 428 kts | 340° |
| 2026-05-05 15:12 | 49.72303 | 1.98810 | 23860 ft | 440 kts | 340° |
| 2026-05-05 15:12 | 49.75219 | 1.97119 | 23863 ft | 452 kts | 339° |
| 2026-05-05 15:12 | 49.78211 | 1.95383 | 23866 ft | 463 kts | 339° |
| 2026-05-05 15:13 | 49.81258 | 1.93610 | 23861 ft | 473 kts | 339° |
| 2026-05-05 15:13 | 49.84349 | 1.91806 | 23866 ft | 482 kts | 339° |
| 2026-05-05 15:13 | 49.87524 | 1.89943 | 23874 ft | 489 kts | 338° |
| 2026-05-05 15:13 | 49.90577 | 1.87581 | 23869 ft | 491 kts | 327° |
| 2026-05-05 15:14 | 49.93322 | 1.84417 | 23871 ft | 491 kts | 321° |
| 2026-05-05 15:14 | 49.95994 | 1.81101 | 23876 ft | 491 kts | 321° |
| 2026-05-05 15:14 | 49.98665 | 1.77795 | 23879 ft | 491 kts | 321° |
| 2026-05-05 15:14 | 50.01322 | 1.74515 | 23874 ft | 489 kts | 321° |
| 2026-05-05 15:15 | 50.03986 | 1.71228 | 23875 ft | 491 kts | 321° |
| 2026-05-05 15:15 | 50.06703 | 1.68011 | 23875 ft | 491 kts | 326° |
| 2026-05-05 15:15 | 50.09693 | 1.65491 | 23878 ft | 493 kts | 335° |
| 2026-05-05 15:15 | 50.12802 | 1.63241 | 23891 ft | 493 kts | 335° |
| 2026-05-05 15:16 | 50.15924 | 1.60987 | 23912 ft | 493 kts | 335° |
| 2026-05-05 15:16 | 50.19062 | 1.58723 | 23900 ft | 492 kts | 335° |
| 2026-05-05 15:16 | 50.22141 | 1.56496 | 23902 ft | 492 kts | 335° |
| 2026-05-05 15:16 | 50.25240 | 1.54241 | 23891 ft | 492 kts | 335° |
| 2026-05-05 15:17 | 50.28343 | 1.51974 | 23898 ft | 491 kts | 335° |
| 2026-05-05 15:17 | 50.31432 | 1.49711 | 23894 ft | 491 kts | 334° |
| 2026-05-05 15:17 | 50.34524 | 1.47444 | 23891 ft | 491 kts | 334° |
| 2026-05-05 15:17 | 50.37616 | 1.45175 | 23888 ft | 491 kts | 334° |
| 2026-05-05 15:18 | 50.40694 | 1.42919 | 23890 ft | 490 kts | 335° |
| 2026-05-05 15:18 | 50.43786 | 1.40651 | 23894 ft | 489 kts | 334° |
| 2026-05-05 15:18 | 50.46855 | 1.38372 | 23902 ft | 489 kts | 332° |
| 2026-05-05 15:18 | 50.49715 | 1.35468 | 23899 ft | 486 kts | 320° |
| 2026-05-05 15:19 | 50.52131 | 1.31807 | 23910 ft | 483 kts | 311° |
| 2026-05-05 15:19 | 50.54410 | 1.27920 | 23913 ft | 483 kts | 311° |
| 2026-05-05 15:19 | 50.56679 | 1.24051 | 23905 ft | 474 kts | 311° |
| 2026-05-05 15:19 | 50.58882 | 1.20344 | 23901 ft | 450 kts | 313° |
| 2026-05-05 15:20 | 50.60972 | 1.16974 | 23911 ft | 429 kts | 313° |
| 2026-05-05 15:20 | 50.62623 | 1.14389 | 23919 ft | 416 kts | 314° |
| 2026-05-05 15:20 | 50.64295 | 1.11801 | 23924 ft | 412 kts | 314° |
| 2026-05-05 15:20 | 50.65862 | 1.09381 | 23924 ft | 409 kts | 314° |
| 2026-05-05 15:21 | 50.67470 | 1.06885 | 23928 ft | 407 kts | 314° |
| 2026-05-05 15:21 | 50.69473 | 1.03751 | 23932 ft | 406 kts | 313° |
| 2026-05-05 15:21 | 50.70788 | 1.01675 | 23836 ft | 404 kts | 313° |
| 2026-05-05 15:21 | 50.72755 | 0.98553 | 23599 ft | 400 kts | 312° |
| 2026-05-05 15:22 | 50.75343 | 0.94430 | 23201 ft | 391 kts | 313° |
| 2026-05-05 15:22 | 50.76626 | 0.92383 | 22896 ft | 387 kts | 314° |
| 2026-05-05 15:22 | 50.78505 | 0.89381 | 22465 ft | 380 kts | 314° |
| 2026-05-05 15:22 | 50.80349 | 0.86429 | 22058 ft | 374 kts | 314° |
| 2026-05-05 15:23 | 50.82156 | 0.83533 | 21651 ft | 368 kts | 314° |
| 2026-05-05 15:23 | 50.83943 | 0.80667 | 21235 ft | 362 kts | 314° |
| 2026-05-05 15:23 | 50.85696 | 0.77856 | 20825 ft | 356 kts | 315° |
| 2026-05-05 15:23 | 50.87426 | 0.75083 | 20376 ft | 353 kts | 315° |
| 2026-05-05 15:24 | 50.89145 | 0.72334 | 19987 ft | 350 kts | 315° |
| 2026-05-05 15:24 | 50.90852 | 0.69603 | 19575 ft | 348 kts | 315° |
| 2026-05-05 15:24 | 50.92543 | 0.66890 | 19143 ft | 345 kts | 315° |
| 2026-05-05 15:24 | 50.94223 | 0.64181 | 18721 ft | 343 kts | 315° |
| 2026-05-05 15:25 | 50.95887 | 0.61490 | 18290 ft | 341 kts | 315° |
| 2026-05-05 15:25 | 50.97543 | 0.58809 | 17784 ft | 340 kts | 315° |
| 2026-05-05 15:25 | 50.99219 | 0.56096 | 17090 ft | 354 kts | 315° |
| 2026-05-05 15:25 | 51.00949 | 0.53297 | 16429 ft | 356 kts | 315° |
| 2026-05-05 15:26 | 51.02688 | 0.50476 | 15765 ft | 358 kts | 315° |
| 2026-05-05 15:26 | 51.04459 | 0.47602 | 15087 ft | 360 kts | 315° |
| 2026-05-05 15:26 | 51.06209 | 0.44764 | 14423 ft | 361 kts | 315° |
| 2026-05-05 15:26 | 51.07986 | 0.41921 | 13717 ft | 362 kts | 317° |
| 2026-05-05 15:27 | 51.09797 | 0.39127 | 13001 ft | 362 kts | 318° |
| 2026-05-05 15:27 | 51.11612 | 0.36384 | 12405 ft | 358 kts | 317° |
| 2026-05-05 15:27 | 51.13410 | 0.33682 | 11760 ft | 356 kts | 317° |
| 2026-05-05 15:27 | 51.15166 | 0.31030 | 11581 ft | 340 kts | 317° |
| 2026-05-05 15:28 | 51.16838 | 0.28488 | 11457 ft | 324 kts | 317° |
| 2026-05-05 15:28 | 51.18427 | 0.26059 | 11321 ft | 309 kts | 317° |
| 2026-05-05 15:28 | 51.19928 | 0.23759 | 11138 ft | 298 kts | 317° |
| 2026-05-05 15:28 | 51.21410 | 0.21486 | 10793 ft | 294 kts | 317° |
| 2026-05-05 15:29 | 51.22869 | 0.19248 | 10323 ft | 292 kts | 316° |
| 2026-05-05 15:29 | 51.24320 | 0.17021 | 9788 ft | 289 kts | 316° |
| 2026-05-05 15:29 | 51.25758 | 0.14806 | 9135 ft | 284 kts | 316° |
| 2026-05-05 15:29 | 51.27170 | 0.12626 | 8334 ft | 280 kts | 317° |
| 2026-05-05 15:30 | 51.28563 | 0.10473 | 7598 ft | 275 kts | 317° |
| 2026-05-05 15:30 | 51.29920 | 0.08376 | 7155 ft | 267 kts | 318° |
| 2026-05-05 15:30 | 51.31211 | 0.06380 | 7040 ft | 249 kts | 318° |
| 2026-05-05 15:30 | 51.32355 | 0.04403 | 7036 ft | 239 kts | 307° |
| 2026-05-05 15:31 | 51.33086 | 0.02023 | 7008 ft | 241 kts | 289° |
| 2026-05-05 15:31 | 51.33351 | -0.00647 | 6985 ft | 244 kts | 278° |
| 2026-05-05 15:31 | 51.33506 | -0.03346 | 6978 ft | 244 kts | 277° |
| 2026-05-05 15:31 | 51.33667 | -0.06050 | 6981 ft | 245 kts | 277° |
| 2026-05-05 15:32 | 51.33832 | -0.08765 | 6983 ft | 245 kts | 277° |
| 2026-05-05 15:32 | 51.33998 | -0.11475 | 6982 ft | 244 kts | 277° |
| 2026-05-05 15:32 | 51.34159 | -0.14150 | 6981 ft | 245 kts | 277° |
| 2026-05-05 15:32 | 51.34320 | -0.16865 | 6983 ft | 244 kts | 277° |
| 2026-05-05 15:33 | 51.34480 | -0.19570 | 6983 ft | 244 kts | 277° |
| 2026-05-05 15:33 | 51.34640 | -0.22276 | 6983 ft | 244 kts | 277° |
| 2026-05-05 15:33 | 51.34798 | -0.24981 | 6982 ft | 244 kts | 277° |
| 2026-05-05 15:33 | 51.34958 | -0.27692 | 6983 ft | 245 kts | 277° |
| 2026-05-05 15:34 | 51.35117 | -0.30403 | 6982 ft | 245 kts | 277° |
| 2026-05-05 15:34 | 51.35274 | -0.33114 | 6981 ft | 244 kts | 277° |
| 2026-05-05 15:34 | 51.35430 | -0.35817 | 6982 ft | 244 kts | 277° |
| 2026-05-05 15:34 | 51.35588 | -0.38524 | 6982 ft | 245 kts | 278° |
| 2026-05-05 15:35 | 51.35745 | -0.41234 | 6981 ft | 245 kts | 277° |
| 2026-05-05 15:35 | 51.35903 | -0.43943 | 6982 ft | 245 kts | 277° |
| 2026-05-05 15:35 | 51.36061 | -0.46658 | 6982 ft | 244 kts | 276° |
| 2026-05-05 15:35 | 51.36216 | -0.49361 | 6981 ft | 244 kts | 277° |
| 2026-05-05 15:36 | 51.36369 | -0.52072 | 6984 ft | 244 kts | 277° |
| 2026-05-05 15:36 | 51.36520 | -0.54775 | 6982 ft | 244 kts | 276° |
| 2026-05-05 15:36 | 51.36670 | -0.57484 | 6983 ft | 244 kts | 276° |
| 2026-05-05 15:36 | 51.36818 | -0.60196 | 6984 ft | 244 kts | 277° |
| 2026-05-05 15:37 | 51.36966 | -0.62902 | 6983 ft | 244 kts | 277° |
| 2026-05-05 15:37 | 51.37114 | -0.65610 | 6975 ft | 245 kts | 275° |
| 2026-05-05 15:37 | 51.37168 | -0.68359 | 6694 ft | 249 kts | 271° |
| 2026-05-05 15:37 | 51.37147 | -0.71116 | 6349 ft | 250 kts | 271° |
| 2026-05-05 15:38 | 51.37122 | -0.73869 | 6052 ft | 246 kts | 276° |
| 2026-05-05 15:38 | 51.37641 | -0.76426 | 5610 ft | 239 kts | 306° |
| 2026-05-05 15:38 | 51.38829 | -0.78168 | 5168 ft | 231 kts | 335° |
| 2026-05-05 15:38 | 51.40363 | -0.78779 | 4720 ft | 228 kts | 359° |
| 2026-05-05 15:39 | 51.41944 | -0.78849 | 4247 ft | 228 kts | 360° |
| 2026-05-05 15:39 | 51.43496 | -0.78921 | 3798 ft | 228 kts | 360° |
| 2026-05-05 15:39 | 51.45080 | -0.78999 | 3418 ft | 227 kts | 360° |
| 2026-05-05 15:39 | 51.46598 | -0.78645 | 3162 ft | 218 kts | 29° |
| 2026-05-05 15:40 | 51.47538 | -0.76916 | 3046 ft | 208 kts | 71° |
| 2026-05-05 15:40 | 51.47633 | -0.74633 | 2976 ft | 203 kts | 88° |
| 2026-05-05 15:40 | 51.47628 | -0.72435 | 2793 ft | 190 kts | 86° |
| 2026-05-05 15:40 | 51.47637 | -0.70395 | 2681 ft | 174 kts | 87° |
| 2026-05-05 15:41 | 51.47647 | -0.68548 | 2544 ft | 158 kts | 86° |
| 2026-05-05 15:41 | 51.47657 | -0.66853 | 2368 ft | 148 kts | 87° |
| 2026-05-05 15:41 | 51.47667 | -0.65249 | 2179 ft | 142 kts | 86° |
| 2026-05-05 15:41 | 51.47676 | -0.63671 | 1987 ft | 140 kts | 85° |
| 2026-05-05 15:42 | 51.47686 | -0.62104 | 1809 ft | 140 kts | 85° |
| 2026-05-05 15:42 | 51.47698 | -0.60532 | 1622 ft | 141 kts | 86° |
| 2026-05-05 15:42 | 51.47710 | -0.58952 | 1448 ft | 142 kts | 86° |
| 2026-05-05 15:42 | 51.47713 | -0.57368 | 1283 ft | 141 kts | 88° |
| 2026-05-05 15:43 | 51.47701 | -0.55798 | 1072 ft | 141 kts | 86° |
| 2026-05-05 15:43 | 51.47723 | -0.54239 | 862 ft | 139 kts | 84° |
| 2026-05-05 15:43 | 51.47754 | -0.52675 | 639 ft | 142 kts | 85° |
| 2026-05-05 15:43 | 51.47763 | -0.51091 | 420 ft | 143 kts | 89° |
| 2026-05-05 15:44 | 51.47748 | -0.49519 | 238 ft | 144 kts | 88° |
| 2026-05-05 15:44 | 51.47753 | -0.47900 | 106 ft | 138 kts | 88° |
| 2026-05-05 15:44 | 51.47763 | -0.46543 | 90 ft | 102 kts | 90° |
| 2026-05-05 15:44 | 51.47759 | -0.45668 | 88 ft | 58 kts | 89° |
| 2026-05-05 15:45 | 51.47760 | -0.45281 | 88 ft | 16 kts | 98° |
| 2026-05-05 15:45 | 51.47687 | -0.45177 | 89 ft | 17 kts | 171° |
| 2026-05-05 15:45 | 51.47602 | -0.45233 | 87 ft | 9 kts | 252° |
| 2026-05-05 15:45 | 51.47601 | -0.45236 | 87 ft | 0 kts | 253° |
| 2026-05-05 15:46 | 51.47601 | -0.45238 | 87 ft | 1 kts | 253° |
| 2026-05-05 15:46 | 51.47596 | -0.45312 | 86 ft | 11 kts | 268° |
| 2026-05-05 15:46 | 51.47595 | -0.45466 | 88 ft | 15 kts | 270° |
| 2026-05-05 15:46 | 51.47596 | -0.45637 | 86 ft | 16 kts | 270° |
| 2026-05-05 15:47 | 51.47595 | -0.45820 | 90 ft | 17 kts | 269° |
| 2026-05-05 15:47 | 51.47594 | -0.45949 | 90 ft | 18 kts | 269° |
| 2026-05-05 15:47 | 51.47594 | -0.46220 | 86 ft | 19 kts | 270° |
| 2026-05-05 15:47 | 51.47593 | -0.46436 | 86 ft | 20 kts | 269° |
| 2026-05-05 15:48 | 51.47592 | -0.46650 | 86 ft | 14 kts | 270° |
| 2026-05-05 15:48 | 51.47590 | -0.46818 | 86 ft | 16 kts | 266° |
| 2026-05-05 15:48 | 51.47584 | -0.46991 | 90 ft | 17 kts | 267° |
| 2026-05-05 15:48 | 51.47581 | -0.47193 | 88 ft | 19 kts | 269° |
| 2026-05-05 15:49 | 51.47581 | -0.47404 | 90 ft | 20 kts | 270° |
| 2026-05-05 15:49 | 51.47581 | -0.47633 | 90 ft | 21 kts | 271° |
| 2026-05-05 15:49 | 51.47573 | -0.47821 | 86 ft | 16 kts | 264° |
| 2026-05-05 15:49 | 51.47572 | -0.47995 | 86 ft | 15 kts | 271° |
| 2026-05-05 15:50 | 51.47574 | -0.48146 | 86 ft | 12 kts | 272° |
| 2026-05-05 15:50 | 51.47576 | -0.48267 | 86 ft | 10 kts | 270° |
| 2026-05-05 15:50 | 51.47577 | -0.48371 | 86 ft | 9 kts | 270° |
| 2026-05-05 15:50 | 51.47558 | -0.48452 | 90 ft | 7 kts | 222° |
| 2026-05-05 15:51 | 51.47511 | -0.48471 | 86 ft | 7 kts | 186° |
| 2026-05-05 15:51 | 51.47457 | -0.48473 | 86 ft | 8 kts | 180° |
| 2026-05-05 15:51 | 51.47393 | -0.48473 | 86 ft | 10 kts | 179° |
| 2026-05-05 15:51 | 51.47320 | -0.48473 | 86 ft | 11 kts | 180° |
| 2026-05-05 15:52 | 51.47238 | -0.48472 | 86 ft | 12 kts | 179° |
| 2026-05-05 15:52 | 51.47149 | -0.48471 | 86 ft | 12 kts | 179° |
| 2026-05-05 15:52 | 51.47073 | -0.48469 | 88 ft | 9 kts | 179° |
| 2026-05-05 15:52 | 51.47017 | -0.48468 | 90 ft | 7 kts | 180° |
| 2026-05-05 15:53 | 51.46974 | -0.48469 | 88 ft | 6 kts | 180° |
| 2026-05-05 15:53 | 51.46933 | -0.48470 | 87 ft | 6 kts | 181° |
| 2026-05-05 15:53 | 51.46890 | -0.48502 | 88 ft | 7 kts | 233° |
| 2026-05-05 15:53 | 51.46876 | -0.48568 | 86 ft | 5 kts | 262° |
| 2026-05-05 15:54 | 51.46875 | -0.48622 | 86 ft | 5 kts | 268° |
| 2026-05-05 15:54 | 51.46874 | -0.48681 | 86 ft | 6 kts | 270° |
| 2026-05-05 15:54 | 51.46875 | -0.48746 | 86 ft | 6 kts | 270° |
| 2026-05-05 15:54 | 51.46875 | -0.48805 | 86 ft | 3 kts | 270° |
| 2026-05-05 15:55 | 51.46876 | -0.48833 | 86 ft | 2 kts | 277° |
| 2026-05-05 15:55 | 51.46884 | -0.48843 | 88 ft | 1 kts | 326° |
| 2026-05-05 15:55 | 51.46892 | -0.48851 | 86 ft | 2 kts | 332° |
| 2026-05-05 15:55 | 51.46905 | -0.48855 | 86 ft | 2 kts | 348° |
| 2026-05-05 15:56 | 51.46915 | -0.48857 | 90 ft | 1 kts | 353° |
| 2026-05-05 15:56 | 51.46917 | -0.48858 | 90 ft | 0 kts | 353° |
| 2026-05-05 15:56 | 51.46921 | -0.48858 | 91 ft | 0 kts | 355° |
| 2026-05-05 15:57 | 51.46926 | -0.48858 | 91 ft | 0 kts | 359° |